sensor_id;sensor_type;location;lat;lon;timestamp;pressure;altitude;pressure_sealevel;temperature;humidity
73842;BME280;62184;52.006;5.924;2023-12-20T00:00:18;100727.13;;;12.60;60.49
73842;BME280;62184;52.006;5.924;2023-12-20T00:02:45;100721.78;;;12.60;60.65
73842;BME280;62184;52.006;5.924;2023-12-20T00:05:12;100720.13;;;12.56;60.21
73842;BME280;62184;52.006;5.924;2023-12-20T00:07:38;100717.41;;;12.57;60.63
73842;BME280;62184;52.006;5.924;2023-12-20T00:10:08;100721.00;;;12.56;60.58
73842;BME280;62184;52.006;5.924;2023-12-20T00:12:34;100720.13;;;12.56;60.64
73842;BME280;62184;52.006;5.924;2023-12-20T00:15:01;100727.50;;;12.49;60.40
73842;BME280;62184;52.006;5.924;2023-12-20T00:17:27;100723.25;;;12.44;60.49
73842;BME280;62184;52.006;5.924;2023-12-20T00:19:54;100713.41;;;12.44;60.23
73842;BME280;62184;52.006;5.924;2023-12-20T00:22:20;100716.09;;;12.44;60.40
73842;BME280;62184;52.006;5.924;2023-12-20T00:24:46;100731.25;;;12.45;60.50
73842;BME280;62184;52.006;5.924;2023-12-20T00:27:15;100718.59;;;12.49;60.41
73842;BME280;62184;52.006;5.924;2023-12-20T00:29:42;100717.56;;;12.53;61.03
73842;BME280;62184;52.006;5.924;2023-12-20T00:32:08;100715.53;;;12.59;61.08
73842;BME280;62184;52.006;5.924;2023-12-20T00:34:34;100707.56;;;12.58;60.77
73842;BME280;62184;52.006;5.924;2023-12-20T00:37:01;100703.41;;;12.49;60.12
73842;BME280;62184;52.006;5.924;2023-12-20T00:39:27;100710.72;;;12.44;60.60
73842;BME280;62184;52.006;5.924;2023-12-20T00:41:54;100700.25;;;12.38;60.51
73842;BME280;62184;52.006;5.924;2023-12-20T00:44:22;100711.03;;;12.35;60.37
73842;BME280;62184;52.006;5.924;2023-12-20T00:46:49;100712.06;;;12.31;60.26
73842;BME280;62184;52.006;5.924;2023-12-20T00:49:15;100716.63;;;12.29;60.36
73842;BME280;62184;52.006;5.924;2023-12-20T00:51:42;100713.16;;;12.25;60.56
73842;BME280;62184;52.006;5.924;2023-12-20T00:54:08;100717.75;;;12.22;60.37
73842;BME280;62184;52.006;5.924;2023-12-20T00:56:35;100711.69;;;12.15;60.15
73842;BME280;62184;52.006;5.924;2023-12-20T00:59:01;100710.91;;;12.13;60.36
73842;BME280;62184;52.006;5.924;2023-12-20T01:01:30;100713.50;;;12.15;60.58
73842;BME280;62184;52.006;5.924;2023-12-20T01:03:56;100710.00;;;12.13;60.13
73842;BME280;62184;52.006;5.924;2023-12-20T01:06:23;100699.53;;;12.05;60.48
73842;BME280;62184;52.006;5.924;2023-12-20T01:08:49;100709.28;;;12.06;60.34
73842;BME280;62184;52.006;5.924;2023-12-20T01:11:16;100717.44;;;12.03;60.55
73842;BME280;62184;52.006;5.924;2023-12-20T01:13:42;100713.91;;;12.03;60.63
73842;BME280;62184;52.006;5.924;2023-12-20T01:16:10;100696.06;;;12.02;60.62
73842;BME280;62184;52.006;5.924;2023-12-20T01:18:39;100694.50;;;11.96;60.47
73842;BME280;62184;52.006;5.924;2023-12-20T01:21:06;100700.75;;;11.95;60.33
73842;BME280;62184;52.006;5.924;2023-12-20T01:23:32;100709.63;;;11.97;60.46
73842;BME280;62184;52.006;5.924;2023-12-20T01:25:59;100715.69;;;12.02;60.73
73842;BME280;62184;52.006;5.924;2023-12-20T01:28:26;100707.63;;;12.04;60.63
73842;BME280;62184;52.006;5.924;2023-12-20T01:30:52;100706.75;;;12.03;60.44
73842;BME280;62184;52.006;5.924;2023-12-20T01:33:19;100700.56;;;12.01;60.43
73842;BME280;62184;52.006;5.924;2023-12-20T01:35:48;100706.16;;;11.93;60.49
73842;BME280;62184;52.006;5.924;2023-12-20T01:38:14;100712.34;;;11.96;60.65
73842;BME280;62184;52.006;5.924;2023-12-20T01:40:41;100704.31;;;11.96;60.47
73842;BME280;62184;52.006;5.924;2023-12-20T01:43:08;100707.09;;;11.92;60.33
73842;BME280;62184;52.006;5.924;2023-12-20T01:45:35;100709.81;;;11.91;60.36
73842;BME280;62184;52.006;5.924;2023-12-20T01:48:02;100703.47;;;11.93;60.53
73842;BME280;62184;52.006;5.924;2023-12-20T01:50:31;100703.56;;;11.90;60.08
73842;BME280;62184;52.006;5.924;2023-12-20T01:53:05;100705.44;;;11.88;60.14
73842;BME280;62184;52.006;5.924;2023-12-20T01:55:36;100718.75;;;11.90;60.25
73842;BME280;62184;52.006;5.924;2023-12-20T01:58:06;100714.41;;;11.87;60.40
73842;BME280;62184;52.006;5.924;2023-12-20T02:00:35;100720.75;;;11.83;60.19
73842;BME280;62184;52.006;5.924;2023-12-20T02:03:03;100721.50;;;11.88;60.32
73842;BME280;62184;52.006;5.924;2023-12-20T02:05:31;100707.16;;;11.89;60.13
73842;BME280;62184;52.006;5.924;2023-12-20T02:07:58;100714.19;;;11.93;60.74
73842;BME280;62184;52.006;5.924;2023-12-20T02:10:28;100709.72;;;11.94;60.12
73842;BME280;62184;52.006;5.924;2023-12-20T02:12:55;100714.84;;;12.00;60.36
73842;BME280;62184;52.006;5.924;2023-12-20T02:15:21;100705.03;;;12.01;60.00
73842;BME280;62184;52.006;5.924;2023-12-20T02:17:48;100720.13;;;12.03;59.89
73842;BME280;62184;52.006;5.924;2023-12-20T02:20:15;100708.38;;;12.07;60.25
73842;BME280;62184;52.006;5.924;2023-12-20T02:22:45;100720.75;;;12.11;60.39
73842;BME280;62184;52.006;5.924;2023-12-20T02:25:11;100716.19;;;12.15;60.09
73842;BME280;62184;52.006;5.924;2023-12-20T02:27:38;100707.28;;;12.14;60.10
73842;BME280;62184;52.006;5.924;2023-12-20T02:30:06;100708.97;;;12.17;60.40
73842;BME280;62184;52.006;5.924;2023-12-20T02:32:34;100700.81;;;12.21;60.38
73842;BME280;62184;52.006;5.924;2023-12-20T02:35:01;100710.44;;;12.27;60.40
73842;BME280;62184;52.006;5.924;2023-12-20T02:37:27;100711.25;;;12.29;60.44
73842;BME280;62184;52.006;5.924;2023-12-20T02:39:56;100707.66;;;12.30;60.03
73842;BME280;62184;52.006;5.924;2023-12-20T02:42:22;100699.72;;;12.27;60.31
73842;BME280;62184;52.006;5.924;2023-12-20T02:44:49;100695.50;;;12.20;59.70
73842;BME280;62184;52.006;5.924;2023-12-20T02:47:15;100693.66;;;12.22;60.35
73842;BME280;62184;52.006;5.924;2023-12-20T02:49:42;100684.75;;;12.21;60.47
73842;BME280;62184;52.006;5.924;2023-12-20T02:52:08;100676.72;;;12.21;60.23
73842;BME280;62184;52.006;5.924;2023-12-20T02:54:35;100679.25;;;12.24;60.11
73842;BME280;62184;52.006;5.924;2023-12-20T02:57:04;100686.31;;;12.27;60.35
73842;BME280;62184;52.006;5.924;2023-12-20T02:59:30;100674.56;;;12.31;60.55
73842;BME280;62184;52.006;5.924;2023-12-20T03:01:57;100681.41;;;12.40;60.76
73842;BME280;62184;52.006;5.924;2023-12-20T03:04:23;100683.22;;;12.39;60.34
73842;BME280;62184;52.006;5.924;2023-12-20T03:06:49;100677.94;;;12.38;60.22
73842;BME280;62184;52.006;5.924;2023-12-20T03:09:16;100681.41;;;12.40;60.41
73842;BME280;62184;52.006;5.924;2023-12-20T03:11:42;100687.53;;;12.43;60.68
73842;BME280;62184;52.006;5.924;2023-12-20T03:14:11;100671.47;;;12.43;60.64
73842;BME280;62184;52.006;5.924;2023-12-20T03:16:38;100669.78;;;12.41;60.17
73842;BME280;62184;52.006;5.924;2023-12-20T03:19:04;100669.94;;;12.36;59.89
73842;BME280;62184;52.006;5.924;2023-12-20T03:21:30;100663.84;;;12.31;60.16
73842;BME280;62184;52.006;5.924;2023-12-20T03:23:57;100654.19;;;12.27;59.56
73842;BME280;62184;52.006;5.924;2023-12-20T03:26:23;100663.25;;;12.23;59.82
73842;BME280;62184;52.006;5.924;2023-12-20T03:28:50;100666.09;;;12.18;59.91
73842;BME280;62184;52.006;5.924;2023-12-20T03:31:19;100666.03;;;12.20;60.22
73842;BME280;62184;52.006;5.924;2023-12-20T03:33:45;100659.88;;;12.18;60.09
73842;BME280;62184;52.006;5.924;2023-12-20T03:36:11;100654.59;;;12.15;59.94
73842;BME280;62184;52.006;5.924;2023-12-20T03:38:38;100663.47;;;12.17;59.89
73842;BME280;62184;52.006;5.924;2023-12-20T03:41:04;100644.72;;;12.17;60.01
73842;BME280;62184;52.006;5.924;2023-12-20T03:43:31;100649.16;;;12.18;60.01
73842;BME280;62184;52.006;5.924;2023-12-20T03:45:57;100648.28;;;12.17;59.60
73842;BME280;62184;52.006;5.924;2023-12-20T03:48:26;100659.03;;;12.16;59.71
73842;BME280;62184;52.006;5.924;2023-12-20T03:50:52;100654.59;;;12.15;59.86
73842;BME280;62184;52.006;5.924;2023-12-20T03:53:19;100652.75;;;12.17;60.29
73842;BME280;62184;52.006;5.924;2023-12-20T03:55:45;100662.72;;;12.13;59.90
73842;BME280;62184;52.006;5.924;2023-12-20T03:58:11;100660.03;;;12.12;59.89
73842;BME280;62184;52.006;5.924;2023-12-20T04:00:38;100654.78;;;12.09;60.10
73842;BME280;62184;52.006;5.924;2023-12-20T04:03:05;100658.38;;;12.08;60.38
73842;BME280;62184;52.006;5.924;2023-12-20T04:05:34;100657.50;;;12.07;60.04
73842;BME280;62184;52.006;5.924;2023-12-20T04:08:01;100644.06;;;12.09;59.95
73842;BME280;62184;52.006;5.924;2023-12-20T04:10:27;100651.09;;;12.13;60.06
73842;BME280;62184;52.006;5.924;2023-12-20T04:12:54;100653.91;;;12.08;59.62
73842;BME280;62184;52.006;5.924;2023-12-20T04:15:20;100665.41;;;12.12;60.14
73842;BME280;62184;52.006;5.924;2023-12-20T04:17:47;100669.69;;;12.17;59.97
73842;BME280;62184;52.006;5.924;2023-12-20T04:20:13;100663.97;;;12.28;60.34
73842;BME280;62184;52.006;5.924;2023-12-20T04:22:42;100646.84;;;12.32;60.12
73842;BME280;62184;52.006;5.924;2023-12-20T04:25:08;100653.13;;;12.31;60.12
73842;BME280;62184;52.006;5.924;2023-12-20T04:27:35;100647.69;;;12.34;60.19
73842;BME280;62184;52.006;5.924;2023-12-20T04:30:01;100651.34;;;12.32;59.81
73842;BME280;62184;52.006;5.924;2023-12-20T04:32:28;100652.28;;;12.31;60.02
73842;BME280;62184;52.006;5.924;2023-12-20T04:34:54;100651.47;;;12.28;59.79
73842;BME280;62184;52.006;5.924;2023-12-20T04:37:20;100655.72;;;12.34;59.88
73842;BME280;62184;52.006;5.924;2023-12-20T04:39:49;100655.44;;;12.42;60.07
73842;BME280;62184;52.006;5.924;2023-12-20T04:42:16;100658.88;;;12.47;59.70
73842;BME280;62184;52.006;5.924;2023-12-20T04:44:42;100648.78;;;12.53;60.27
73842;BME280;62184;52.006;5.924;2023-12-20T04:47:09;100653.00;;;12.60;60.25
73842;BME280;62184;52.006;5.924;2023-12-20T04:49:35;100659.00;;;12.67;60.08
73842;BME280;62184;52.006;5.924;2023-12-20T04:52:01;100658.25;;;12.63;59.74
73842;BME280;62184;52.006;5.924;2023-12-20T04:54:28;100660.06;;;12.63;59.73
73842;BME280;62184;52.006;5.924;2023-12-20T04:56:57;100665.22;;;12.67;60.09
73842;BME280;62184;52.006;5.924;2023-12-20T04:59:23;100651.59;;;12.74;60.44
73842;BME280;62184;52.006;5.924;2023-12-20T05:01:50;100648.78;;;12.78;60.37
73842;BME280;62184;52.006;5.924;2023-12-20T05:04:16;100648.72;;;12.80;60.08
73842;BME280;62184;52.006;5.924;2023-12-20T05:06:43;100648.72;;;12.80;59.87
73842;BME280;62184;52.006;5.924;2023-12-20T05:09:09;100644.28;;;12.79;59.84
73842;BME280;62184;52.006;5.924;2023-12-20T05:11:35;100640.53;;;12.83;59.59
73842;BME280;62184;52.006;5.924;2023-12-20T05:14:04;100635.19;;;12.83;59.48
73842;BME280;62184;52.006;5.924;2023-12-20T05:16:31;100619.97;;;12.83;59.58
73842;BME280;62184;52.006;5.924;2023-12-20T05:18:57;100634.44;;;12.79;58.92
73842;BME280;62184;52.006;5.924;2023-12-20T05:21:23;100614.81;;;12.79;59.37
73842;BME280;62184;52.006;5.924;2023-12-20T05:23:50;100604.97;;;12.79;59.27
73842;BME280;62184;52.006;5.924;2023-12-20T05:26:16;100620.03;;;12.82;59.07
73842;BME280;62184;52.006;5.924;2023-12-20T05:28:43;100626.13;;;12.87;59.33
73842;BME280;62184;52.006;5.924;2023-12-20T05:31:12;100626.13;;;12.87;59.32
73842;BME280;62184;52.006;5.924;2023-12-20T05:33:38;100625.78;;;12.96;59.15
73842;BME280;62184;52.006;5.924;2023-12-20T05:36:05;100631.66;;;13.05;59.38
73842;BME280;62184;52.006;5.924;2023-12-20T05:38:32;100626.09;;;13.10;59.39
73842;BME280;62184;52.006;5.924;2023-12-20T05:40:58;100625.19;;;13.11;58.74
73842;BME280;62184;52.006;5.924;2023-12-20T05:43:25;100626.28;;;13.05;59.01
73842;BME280;62184;52.006;5.924;2023-12-20T05:45:51;100634.44;;;13.02;59.08
73842;BME280;62184;52.006;5.924;2023-12-20T05:48:20;100634.44;;;13.02;59.08
73842;BME280;62184;52.006;5.924;2023-12-20T05:50:46;100637.19;;;13.01;58.84
73842;BME280;62184;52.006;5.924;2023-12-20T05:53:13;100639.69;;;13.05;59.26
73842;BME280;62184;52.006;5.924;2023-12-20T05:55:39;100639.56;;;13.09;59.09
73842;BME280;62184;52.006;5.924;2023-12-20T05:58:06;100640.44;;;13.09;59.19
73842;BME280;62184;52.006;5.924;2023-12-20T06:00:32;100648.31;;;13.14;59.61
73842;BME280;62184;52.006;5.924;2023-12-20T06:02:58;100649.94;;;13.18;59.81
73842;BME280;62184;52.006;5.924;2023-12-20T06:05:27;100650.81;;;13.18;59.52
73842;BME280;62184;52.006;5.924;2023-12-20T06:07:54;100644.69;;;13.15;58.82
73842;BME280;62184;52.006;5.924;2023-12-20T06:10:20;100645.56;;;13.15;59.15
73842;BME280;62184;52.006;5.924;2023-12-20T06:12:47;100639.31;;;13.15;59.25
73842;BME280;62184;52.006;5.924;2023-12-20T06:15:13;100639.41;;;13.13;59.00
73842;BME280;62184;52.006;5.924;2023-12-20T06:17:40;100643.13;;;13.09;58.35
73842;BME280;62184;52.006;5.924;2023-12-20T06:20:08;100636.59;;;13.16;59.38
73842;BME280;62184;52.006;5.924;2023-12-20T06:22:38;100639.09;;;13.21;59.41
73842;BME280;62184;52.006;5.924;2023-12-20T06:25:05;100635.59;;;13.19;58.88
73842;BME280;62184;52.006;5.924;2023-12-20T06:27:32;100630.44;;;13.14;58.88
73842;BME280;62184;52.006;5.924;2023-12-20T06:29:58;100634.84;;;13.15;59.16
73842;BME280;62184;52.006;5.924;2023-12-20T06:32:25;100629.47;;;13.15;58.81
73842;BME280;62184;52.006;5.924;2023-12-20T06:34:51;100636.63;;;13.15;58.91
73842;BME280;62184;52.006;5.924;2023-12-20T06:37:17;100628.53;;;13.16;59.04
73842;BME280;62184;52.006;5.924;2023-12-20T06:39:46;100636.53;;;13.18;59.03
73842;BME280;62184;52.006;5.924;2023-12-20T06:42:13;100633.91;;;13.16;58.72
73842;BME280;62184;52.006;5.924;2023-12-20T06:44:39;100617.94;;;13.13;59.02
73842;BME280;62184;52.006;5.924;2023-12-20T06:47:06;100630.34;;;13.16;58.82
73842;BME280;62184;52.006;5.924;2023-12-20T06:49:32;100620.63;;;13.13;58.48
73842;BME280;62184;52.006;5.924;2023-12-20T06:51:58;100619.91;;;13.08;58.32
73842;BME280;62184;52.006;5.924;2023-12-20T06:54:25;100624.25;;;13.12;58.61
73842;BME280;62184;52.006;5.924;2023-12-20T06:56:54;100627.84;;;13.11;58.29
73842;BME280;62184;52.006;5.924;2023-12-20T06:59:20;100628.59;;;13.15;58.36
73842;BME280;62184;52.006;5.924;2023-12-20T07:01:47;100611.66;;;13.14;58.66
73842;BME280;62184;52.006;5.924;2023-12-20T07:04:15;100611.53;;;13.17;58.76
73842;BME280;62184;52.006;5.924;2023-12-20T07:06:42;100608.88;;;13.16;58.47
73842;BME280;62184;52.006;5.924;2023-12-20T07:09:08;100602.66;;;13.15;58.73
73842;BME280;62184;52.006;5.924;2023-12-20T07:11:34;100606.16;;;13.17;58.94
73842;BME280;62184;52.006;5.924;2023-12-20T07:14:03;100606.22;;;13.16;58.77
73842;BME280;62184;52.006;5.924;2023-12-20T07:16:30;100594.69;;;13.14;58.89
73842;BME280;62184;52.006;5.924;2023-12-20T07:18:56;100609.81;;;13.15;58.80
73842;BME280;62184;52.006;5.924;2023-12-20T07:21:23;100606.16;;;13.17;58.37
73842;BME280;62184;52.006;5.924;2023-12-20T07:23:49;100611.41;;;13.20;58.26
73842;BME280;62184;52.006;5.924;2023-12-20T07:26:16;100608.72;;;13.20;58.43
73842;BME280;62184;52.006;5.924;2023-12-20T07:28:43;100607.91;;;13.18;58.34
73842;BME280;62184;52.006;5.924;2023-12-20T07:31:12;100606.88;;;13.22;59.08
73842;BME280;62184;52.006;5.924;2023-12-20T07:33:39;100599.66;;;13.23;58.46
73842;BME280;62184;52.006;5.924;2023-12-20T07:36:06;100613.16;;;13.21;58.25
73842;BME280;62184;52.006;5.924;2023-12-20T07:38:32;100609.41;;;13.25;58.88
73842;BME280;62184;52.006;5.924;2023-12-20T07:40:59;100607.91;;;13.18;58.09
73842;BME280;62184;52.006;5.924;2023-12-20T07:43:25;100604.41;;;13.16;58.12
73842;BME280;62184;52.006;5.924;2023-12-20T07:45:52;100596.34;;;13.16;58.56
73842;BME280;62184;52.006;5.924;2023-12-20T07:48:21;100596.97;;;13.23;58.31
73842;BME280;62184;52.006;5.924;2023-12-20T07:50:47;100597.81;;;13.25;59.11
73842;BME280;62184;52.006;5.924;2023-12-20T07:53:13;100594.25;;;13.24;58.71
73842;BME280;62184;52.006;5.924;2023-12-20T07:55:40;100598.56;;;13.28;58.75
73842;BME280;62184;52.006;5.924;2023-12-20T07:58:06;100603.94;;;13.28;58.78
73842;BME280;62184;52.006;5.924;2023-12-20T08:00:33;100612.03;;;13.27;58.54
73842;BME280;62184;52.006;5.924;2023-12-20T08:02:59;100625.34;;;13.30;59.16
73842;BME280;62184;52.006;5.924;2023-12-20T08:05:28;100622.94;;;13.46;58.91
73842;BME280;62184;52.006;5.924;2023-12-20T08:07:55;100620.06;;;13.50;58.49
73842;BME280;62184;52.006;5.924;2023-12-20T08:10:21;100625.19;;;13.56;58.22
73842;BME280;62184;52.006;5.924;2023-12-20T08:12:47;100632.38;;;13.56;58.02
73842;BME280;62184;52.006;5.924;2023-12-20T08:15:14;100635.06;;;13.56;58.90
73842;BME280;62184;52.006;5.924;2023-12-20T08:17:40;100627.94;;;13.55;58.00
73842;BME280;62184;52.006;5.924;2023-12-20T08:20:07;100631.66;;;13.51;58.76
73842;BME280;62184;52.006;5.924;2023-12-20T08:22:36;100623.69;;;13.49;58.70
73842;BME280;62184;52.006;5.924;2023-12-20T08:25:04;100633.69;;;13.46;58.34
73842;BME280;62184;52.006;5.924;2023-12-20T08:27:31;100625.63;;;13.46;57.15
73842;BME280;62184;52.006;5.924;2023-12-20T08:29:57;100624.34;;;13.56;58.37
73842;BME280;62184;52.006;5.924;2023-12-20T08:32:25;100614.38;;;13.58;57.97
73842;BME280;62184;52.006;5.924;2023-12-20T08:34:51;100620.63;;;13.58;58.19
73842;BME280;62184;52.006;5.924;2023-12-20T08:37:18;100612.41;;;13.63;58.38
73842;BME280;62184;52.006;5.924;2023-12-20T08:39:47;100614.16;;;13.64;57.85
73842;BME280;62184;52.006;5.924;2023-12-20T08:42:13;100618.56;;;13.65;57.22
73842;BME280;62184;52.006;5.924;2023-12-20T08:44:40;100610.59;;;13.63;58.37
73842;BME280;62184;52.006;5.924;2023-12-20T08:47:06;100605.97;;;13.67;58.18
73842;BME280;62184;52.006;5.924;2023-12-20T08:49:32;100616.56;;;13.70;57.97
73842;BME280;62184;52.006;5.924;2023-12-20T08:51:59;100598.72;;;13.69;58.19
73842;BME280;62184;52.006;5.924;2023-12-20T08:54:25;100604.22;;;13.66;57.91
73842;BME280;62184;52.006;5.924;2023-12-20T08:56:54;100599.88;;;13.63;57.83
73842;BME280;62184;52.006;5.924;2023-12-20T08:59:21;100590.72;;;13.67;58.43
73842;BME280;62184;52.006;5.924;2023-12-20T09:01:47;100598.53;;;13.73;59.07
73842;BME280;62184;52.006;5.924;2023-12-20T09:04:13;100594.19;;;13.71;58.23
73842;BME280;62184;52.006;5.924;2023-12-20T09:06:40;100598.66;;;13.70;58.10
73842;BME280;62184;52.006;5.924;2023-12-20T09:09:06;100598.84;;;13.66;57.89
73842;BME280;62184;52.006;5.924;2023-12-20T09:11:33;100598.78;;;13.67;58.20
73842;BME280;62184;52.006;5.924;2023-12-20T09:14:02;100600.75;;;13.64;58.54
73842;BME280;62184;52.006;5.924;2023-12-20T09:16:28;100599.16;;;13.58;57.75
73842;BME280;62184;52.006;5.924;2023-12-20T09:18:54;100598.22;;;13.59;58.44
73842;BME280;62184;52.006;5.924;2023-12-20T09:21:21;100601.78;;;13.60;58.55
73842;BME280;62184;52.006;5.924;2023-12-20T09:23:47;100600.97;;;13.58;58.80
73842;BME280;62184;52.006;5.924;2023-12-20T09:26:14;100602.09;;;13.52;59.36
73842;BME280;62184;52.006;5.924;2023-12-20T09:28:40;100604.72;;;13.54;59.66
73842;BME280;62184;52.006;5.924;2023-12-20T09:31:09;100599.41;;;13.52;58.98
73842;BME280;62184;52.006;5.924;2023-12-20T09:33:36;100598.47;;;13.53;59.37
73842;BME280;62184;52.006;5.924;2023-12-20T09:36:03;100601.16;;;13.53;59.66
73842;BME280;62184;52.006;5.924;2023-12-20T09:38:29;100608.34;;;13.53;59.99
73842;BME280;62184;52.006;5.924;2023-12-20T09:40:56;100606.97;;;13.42;58.69
73842;BME280;62184;52.006;5.924;2023-12-20T09:43:24;100605.16;;;13.43;59.68
73842;BME280;62184;52.006;5.924;2023-12-20T09:45:53;100596.41;;;13.38;59.09
73842;BME280;62184;52.006;5.924;2023-12-20T09:48:24;100595.41;;;13.40;59.81
73842;BME280;62184;52.006;5.924;2023-12-20T09:50:52;100596.22;;;13.42;59.64
73842;BME280;62184;52.006;5.924;2023-12-20T09:53:19;100595.31;;;13.43;59.87
73842;BME280;62184;52.006;5.924;2023-12-20T09:55:47;100606.84;;;13.46;60.09
73842;BME280;62184;52.006;5.924;2023-12-20T09:58:13;100601.47;;;13.46;60.00
73842;BME280;62184;52.006;5.924;2023-12-20T10:00:40;100609.59;;;13.44;59.94
73842;BME280;62184;52.006;5.924;2023-12-20T10:03:06;100611.28;;;13.47;59.84
73842;BME280;62184;52.006;5.924;2023-12-20T10:05:39;100612.94;;;13.49;59.81
73842;BME280;62184;52.006;5.924;2023-12-20T10:08:09;100618.97;;;13.56;60.11
73842;BME280;62184;52.006;5.924;2023-12-20T10:10:35;100629.38;;;13.63;60.17
73842;BME280;62184;52.006;5.924;2023-12-20T10:13:03;100620.19;;;13.69;60.07
73842;BME280;62184;52.006;5.924;2023-12-20T10:15:32;100618.28;;;13.72;59.87
73842;BME280;62184;52.006;5.924;2023-12-20T10:17:59;100619.22;;;13.71;59.57
73842;BME280;62184;52.006;5.924;2023-12-20T10:20:26;100623.50;;;13.75;59.77
73842;BME280;62184;52.006;5.924;2023-12-20T10:22:55;100634.19;;;13.77;59.79
73842;BME280;62184;52.006;5.924;2023-12-20T10:25:22;100629.63;;;13.79;59.80
73842;BME280;62184;52.006;5.924;2023-12-20T10:27:49;100631.16;;;13.85;59.88
73842;BME280;62184;52.006;5.924;2023-12-20T10:30:34;100622.78;;;13.92;59.87
73842;BME280;62184;52.006;5.924;2023-12-20T10:33:00;100628.16;;;13.92;59.42
73842;BME280;62184;52.006;5.924;2023-12-20T10:35:26;100618.34;;;13.91;59.65
73842;BME280;62184;52.006;5.924;2023-12-20T10:37:56;100615.44;;;13.97;59.93
73842;BME280;62184;52.006;5.924;2023-12-20T10:40:27;100604.44;;;14.03;59.36
73842;BME280;62184;52.006;5.924;2023-12-20T10:42:56;100601.75;;;14.03;59.21
73842;BME280;62184;52.006;5.924;2023-12-20T10:45:24;100602.56;;;14.05;59.48
73842;BME280;62184;52.006;5.924;2023-12-20T10:47:50;100596.09;;;14.09;59.57
73842;BME280;62184;52.006;5.924;2023-12-20T10:50:18;100594.34;;;14.08;59.30
73842;BME280;62184;52.006;5.924;2023-12-20T10:52:46;100595.91;;;14.14;59.73
73842;BME280;62184;52.006;5.924;2023-12-20T10:55:16;100590.38;;;14.17;59.58
73842;BME280;62184;52.006;5.924;2023-12-20T10:57:43;100593.13;;;14.15;59.00
73842;BME280;62184;52.006;5.924;2023-12-20T11:00:14;100581.78;;;14.09;59.22
73842;BME280;62184;52.006;5.924;2023-12-20T11:02:43;100597.72;;;14.13;59.79
73842;BME280;62184;52.006;5.924;2023-12-20T11:05:16;100592.88;;;14.22;59.60
73842;BME280;62184;52.006;5.924;2023-12-20T11:07:55;100594.09;;;14.35;59.73
73842;BME280;62184;52.006;5.924;2023-12-20T11:10:31;100592.81;;;14.43;59.86
73842;BME280;62184;52.006;5.924;2023-12-20T11:13:12;100584.69;;;14.45;59.37
73842;BME280;62184;52.006;5.924;2023-12-20T11:15:46;100585.50;;;14.47;59.62
73842;BME280;62184;52.006;5.924;2023-12-20T11:18:12;100586.13;;;14.52;59.79
73842;BME280;62184;52.006;5.924;2023-12-20T11:20:40;100581.38;;;14.59;59.39
73842;BME280;62184;52.006;5.924;2023-12-20T11:23:08;100576.88;;;14.59;58.90
73842;BME280;62184;52.006;5.924;2023-12-20T11:25:53;100565.84;;;14.65;59.15
73842;BME280;62184;52.006;5.924;2023-12-20T11:28:23;100564.03;;;14.66;59.10
73842;BME280;62184;52.006;5.924;2023-12-20T11:30:51;100556.84;;;14.66;58.98
73842;BME280;62184;52.006;5.924;2023-12-20T11:33:22;100554.09;;;14.68;59.23
73842;BME280;62184;52.006;5.924;2023-12-20T11:35:50;100555.53;;;14.75;58.98
73842;BME280;62184;52.006;5.924;2023-12-20T11:38:19;100552.66;;;14.79;59.01
73842;BME280;62184;52.006;5.924;2023-12-20T11:40:50;100542.53;;;14.84;59.05
73842;BME280;62184;52.006;5.924;2023-12-20T11:43:38;100536.88;;;14.90;58.97
73842;BME280;62184;52.006;5.924;2023-12-20T11:46:06;100537.53;;;14.96;58.79
73842;BME280;62184;52.006;5.924;2023-12-20T11:48:35;100540.94;;;14.99;58.85
73842;BME280;62184;52.006;5.924;2023-12-20T11:51:09;100547.88;;;15.05;58.94
73842;BME280;62184;52.006;5.924;2023-12-20T11:53:36;100555.06;;;15.04;58.81
73842;BME280;62184;52.006;5.924;2023-12-20T11:56:06;100554.06;;;15.07;58.77
73842;BME280;62184;52.006;5.924;2023-12-20T11:58:33;100553.88;;;15.10;58.58
73842;BME280;62184;52.006;5.924;2023-12-20T12:01:00;100549.75;;;15.03;56.07
73842;BME280;62184;52.006;5.924;2023-12-20T12:03:26;100548.94;;;15.01;57.33
73842;BME280;62184;52.006;5.924;2023-12-20T12:05:53;100551.00;;;14.96;57.63
73842;BME280;62184;52.006;5.924;2023-12-20T12:08:19;100543.56;;;15.01;58.43
73842;BME280;62184;52.006;5.924;2023-12-20T12:10:45;100547.78;;;15.06;58.62
73842;BME280;62184;52.006;5.924;2023-12-20T12:13:15;100530.69;;;15.07;57.70
73842;BME280;62184;52.006;5.924;2023-12-20T12:15:42;100529.84;;;15.07;57.71
73842;BME280;62184;52.006;5.924;2023-12-20T12:18:08;100536.00;;;15.09;58.01
73842;BME280;62184;52.006;5.924;2023-12-20T12:20:35;100540.38;;;15.11;57.41
73842;BME280;62184;52.006;5.924;2023-12-20T12:23:03;100526.97;;;15.10;57.79
73842;BME280;62184;52.006;5.924;2023-12-20T12:25:31;100522.41;;;15.12;57.98
73842;BME280;62184;52.006;5.924;2023-12-20T12:28:01;100525.91;;;15.14;57.74
73842;BME280;62184;52.006;5.924;2023-12-20T12:30:30;100538.91;;;15.23;58.65
73842;BME280;62184;52.006;5.924;2023-12-20T12:32:56;100527.91;;;15.27;57.92
73842;BME280;62184;52.006;5.924;2023-12-20T12:35:23;100524.97;;;15.32;58.02
73842;BME280;62184;52.006;5.924;2023-12-20T12:37:51;100518.75;;;15.31;57.72
73842;BME280;62184;52.006;5.924;2023-12-20T12:40:17;100506.13;;;15.32;57.76
73842;BME280;62184;52.006;5.924;2023-12-20T12:42:44;100502.50;;;15.33;57.94
73842;BME280;62184;52.006;5.924;2023-12-20T12:45:11;100500.41;;;15.40;58.01
73842;BME280;62184;52.006;5.924;2023-12-20T12:47:40;100491.44;;;15.39;57.68
73842;BME280;62184;52.006;5.924;2023-12-20T12:50:08;100491.97;;;15.28;56.41